sensor_id;sensor_type;location;lat;lon;timestamp;P1;durP1;ratioP1;P2;durP2;ratioP2
57441;SDS011;43284;47.042;15.498;2023-07-20T00:02:19;7.38;;;4.00;;
57441;SDS011;43284;47.042;15.498;2023-07-20T00:04:45;7.53;;;3.65;;
57441;SDS011;43284;47.042;15.498;2023-07-20T00:07:10;16.13;;;3.78;;
57441;SDS011;43284;47.042;15.498;2023-07-20T00:09:37;7.45;;;3.75;;
57441;SDS011;43284;47.042;15.498;2023-07-20T00:12:03;7.78;;;3.92;;
57441;SDS011;43284;47.042;15.498;2023-07-20T00:14:28;5.70;;;3.50;;
57441;SDS011;43284;47.042;15.498;2023-07-20T00:16:55;5.93;;;3.42;;
57441;SDS011;43284;47.042;15.498;2023-07-20T00:19:24;7.43;;;4.07;;
57441;SDS011;43284;47.042;15.498;2023-07-20T00:21:51;11.23;;;3.97;;
57441;SDS011;43284;47.042;15.498;2023-07-20T00:24:17;11.65;;;3.95;;
57441;SDS011;43284;47.042;15.498;2023-07-20T00:26:43;9.32;;;3.33;;
57441;SDS011;43284;47.042;15.498;2023-07-20T00:29:09;9.82;;;3.95;;
57441;SDS011;43284;47.042;15.498;2023-07-20T00:31:34;6.22;;;3.67;;
57441;SDS011;43284;47.042;15.498;2023-07-20T00:34:02;7.93;;;3.45;;
57441;SDS011;43284;47.042;15.498;2023-07-20T00:36:33;10.13;;;3.88;;
57441;SDS011;43284;47.042;15.498;2023-07-20T00:38:58;9.88;;;4.43;;
57441;SDS011;43284;47.042;15.498;2023-07-20T00:41:24;7.68;;;4.18;;
57441;SDS011;43284;47.042;15.498;2023-07-20T00:43:54;10.45;;;3.85;;
57441;SDS011;43284;47.042;15.498;2023-07-20T00:46:20;5.68;;;3.33;;
57441;SDS011;43284;47.042;15.498;2023-07-20T00:48:51;5.95;;;3.45;;
57441;SDS011;43284;47.042;15.498;2023-07-20T00:51:18;5.45;;;3.03;;
57441;SDS011;43284;47.042;15.498;2023-07-20T00:53:44;7.30;;;3.70;;
57441;SDS011;43284;47.042;15.498;2023-07-20T00:56:09;6.35;;;3.22;;
57441;SDS011;43284;47.042;15.498;2023-07-20T00:58:35;7.20;;;3.58;;
57441;SDS011;43284;47.042;15.498;2023-07-20T01:01:01;5.28;;;3.47;;
57441;SDS011;43284;47.042;15.498;2023-07-20T01:03:26;6.43;;;3.50;;
57441;SDS011;43284;47.042;15.498;2023-07-20T01:06:36;8.15;;;3.85;;
57441;SDS011;43284;47.042;15.498;2023-07-20T01:08:58;10.05;;;4.32;;
57441;SDS011;43284;47.042;15.498;2023-07-20T01:11:38;7.30;;;4.18;;
57441;SDS011;43284;47.042;15.498;2023-07-20T01:14:28;7.72;;;3.30;;
57441;SDS011;43284;47.042;15.498;2023-07-20T01:16:54;7.97;;;3.90;;
57441;SDS011;43284;47.042;15.498;2023-07-20T01:19:20;6.35;;;3.20;;
57441;SDS011;43284;47.042;15.498;2023-07-20T01:21:57;9.57;;;3.63;;
57441;SDS011;43284;47.042;15.498;2023-07-20T01:32:20;5.30;;;3.13;;
57441;SDS011;43284;47.042;15.498;2023-07-20T01:34:50;7.55;;;3.40;;
57441;SDS011;43284;47.042;15.498;2023-07-20T01:37:17;8.48;;;3.53;;
57441;SDS011;43284;47.042;15.498;2023-07-20T01:39:46;7.20;;;3.85;;
57441;SDS011;43284;47.042;15.498;2023-07-20T01:42:12;7.78;;;4.15;;
57441;SDS011;43284;47.042;15.498;2023-07-20T01:44:38;6.43;;;3.20;;
57441;SDS011;43284;47.042;15.498;2023-07-20T01:47:03;10.30;;;3.80;;
57441;SDS011;43284;47.042;15.498;2023-07-20T01:49:29;7.93;;;3.75;;
57441;SDS011;43284;47.042;15.498;2023-07-20T01:51:54;6.65;;;3.22;;
57441;SDS011;43284;47.042;15.498;2023-07-20T01:54:20;7.20;;;3.78;;
57441;SDS011;43284;47.042;15.498;2023-07-20T01:56:48;6.47;;;3.38;;
57441;SDS011;43284;47.042;15.498;2023-07-20T01:59:13;9.75;;;3.42;;
57441;SDS011;43284;47.042;15.498;2023-07-20T02:01:39;8.95;;;3.28;;
57441;SDS011;43284;47.042;15.498;2023-07-20T02:04:04;8.07;;;3.53;;
57441;SDS011;43284;47.042;15.498;2023-07-20T02:06:30;9.90;;;3.20;;
57441;SDS011;43284;47.042;15.498;2023-07-20T02:08:55;7.13;;;3.90;;
57441;SDS011;43284;47.042;15.498;2023-07-20T02:11:21;8.13;;;4.07;;
57441;SDS011;43284;47.042;15.498;2023-07-20T02:13:46;7.30;;;4.15;;
57441;SDS011;43284;47.042;15.498;2023-07-20T02:16:12;8.23;;;3.80;;
57441;SDS011;43284;47.042;15.498;2023-07-20T02:18:37;5.78;;;3.50;;
57441;SDS011;43284;47.042;15.498;2023-07-20T02:21:03;7.70;;;4.07;;
57441;SDS011;43284;47.042;15.498;2023-07-20T02:23:28;13.80;;;4.55;;
57441;SDS011;43284;47.042;15.498;2023-07-20T02:25:54;6.13;;;3.50;;
57441;SDS011;43284;47.042;15.498;2023-07-20T02:28:19;6.65;;;3.35;;
57441;SDS011;43284;47.042;15.498;2023-07-20T02:30:45;7.65;;;3.38;;
57441;SDS011;43284;47.042;15.498;2023-07-20T02:33:11;9.15;;;3.75;;
57441;SDS011;43284;47.042;15.498;2023-07-20T02:35:36;9.70;;;3.85;;
57441;SDS011;43284;47.042;15.498;2023-07-20T02:38:02;9.73;;;4.18;;
57441;SDS011;43284;47.042;15.498;2023-07-20T02:40:28;10.25;;;3.80;;
57441;SDS011;43284;47.042;15.498;2023-07-20T02:42:53;9.40;;;3.70;;
57441;SDS011;43284;47.042;15.498;2023-07-20T02:45:19;8.98;;;4.78;;
57441;SDS011;43284;47.042;15.498;2023-07-20T02:47:44;10.98;;;3.80;;
57441;SDS011;43284;47.042;15.498;2023-07-20T02:50:10;6.20;;;3.90;;
57441;SDS011;43284;47.042;15.498;2023-07-20T02:52:38;7.80;;;3.88;;
57441;SDS011;43284;47.042;15.498;2023-07-20T02:55:04;8.23;;;4.95;;
57441;SDS011;43284;47.042;15.498;2023-07-20T02:57:29;8.50;;;3.92;;
57441;SDS011;43284;47.042;15.498;2023-07-20T02:59:55;6.63;;;3.58;;
57441;SDS011;43284;47.042;15.498;2023-07-20T03:02:20;10.88;;;4.20;;
57441;SDS011;43284;47.042;15.498;2023-07-20T03:04:46;7.93;;;3.85;;
57441;SDS011;43284;47.042;15.498;2023-07-20T03:07:11;10.63;;;3.60;;
57441;SDS011;43284;47.042;15.498;2023-07-20T03:09:37;7.88;;;3.63;;
57441;SDS011;43284;47.042;15.498;2023-07-20T03:12:03;7.60;;;4.03;;
57441;SDS011;43284;47.042;15.498;2023-07-20T03:14:30;9.95;;;3.67;;
57441;SDS011;43284;47.042;15.498;2023-07-20T03:16:55;7.10;;;3.80;;
57441;SDS011;43284;47.042;15.498;2023-07-20T03:19:21;5.78;;;3.35;;
57441;SDS011;43284;47.042;15.498;2023-07-20T03:21:46;7.75;;;3.90;;
57441;SDS011;43284;47.042;15.498;2023-07-20T03:24:12;5.45;;;3.42;;
57441;SDS011;43284;47.042;15.498;2023-07-20T03:26:37;7.85;;;3.47;;
57441;SDS011;43284;47.042;15.498;2023-07-20T03:29:03;8.75;;;3.67;;
57441;SDS011;43284;47.042;15.498;2023-07-20T03:31:30;6.45;;;3.30;;
57441;SDS011;43284;47.042;15.498;2023-07-20T03:33:55;8.13;;;3.97;;
57441;SDS011;43284;47.042;15.498;2023-07-20T03:36:21;8.73;;;3.55;;
57441;SDS011;43284;47.042;15.498;2023-07-20T03:38:47;7.28;;;4.25;;
57441;SDS011;43284;47.042;15.498;2023-07-20T03:41:12;7.47;;;3.35;;
57441;SDS011;43284;47.042;15.498;2023-07-20T03:43:39;4.70;;;3.30;;
57441;SDS011;43284;47.042;15.498;2023-07-20T03:46:05;6.95;;;3.55;;
57441;SDS011;43284;47.042;15.498;2023-07-20T03:48:32;14.63;;;3.63;;
57441;SDS011;43284;47.042;15.498;2023-07-20T03:50:58;5.53;;;3.28;;
57441;SDS011;43284;47.042;15.498;2023-07-20T03:53:25;5.40;;;3.13;;
57441;SDS011;43284;47.042;15.498;2023-07-20T03:55:51;7.15;;;3.88;;
57441;SDS011;43284;47.042;15.498;2023-07-20T03:58:18;6.75;;;3.35;;
57441;SDS011;43284;47.042;15.498;2023-07-20T04:00:48;9.95;;;3.55;;
57441;SDS011;43284;47.042;15.498;2023-07-20T04:03:18;6.27;;;3.53;;
57441;SDS011;43284;47.042;15.498;2023-07-20T04:05:44;5.57;;;3.20;;
57441;SDS011;43284;47.042;15.498;2023-07-20T04:08:10;5.00;;;3.10;;
57441;SDS011;43284;47.042;15.498;2023-07-20T04:10:36;7.20;;;3.80;;
57441;SDS011;43284;47.042;15.498;2023-07-20T04:13:02;4.60;;;2.83;;
57441;SDS011;43284;47.042;15.498;2023-07-20T04:15:28;9.45;;;2.80;;
57441;SDS011;43284;47.042;15.498;2023-07-20T04:17:54;9.30;;;2.83;;
57441;SDS011;43284;47.042;15.498;2023-07-20T04:20:21;6.05;;;2.88;;
57441;SDS011;43284;47.042;15.498;2023-07-20T04:22:48;6.78;;;2.75;;
57441;SDS011;43284;47.042;15.498;2023-07-20T04:25:13;5.53;;;2.97;;
57441;SDS011;43284;47.042;15.498;2023-07-20T04:27:39;4.25;;;2.67;;
57441;SDS011;43284;47.042;15.498;2023-07-20T04:30:06;6.13;;;2.50;;
57441;SDS011;43284;47.042;15.498;2023-07-20T04:32:32;5.35;;;2.60;;
57441;SDS011;43284;47.042;15.498;2023-07-20T04:34:59;4.85;;;2.92;;
57441;SDS011;43284;47.042;15.498;2023-07-20T04:37:24;8.05;;;2.47;;
57441;SDS011;43284;47.042;15.498;2023-07-20T04:39:50;6.72;;;3.17;;
57441;SDS011;43284;47.042;15.498;2023-07-20T04:42:15;5.93;;;3.13;;
57441;SDS011;43284;47.042;15.498;2023-07-20T04:44:41;7.18;;;2.58;;
57441;SDS011;43284;47.042;15.498;2023-07-20T04:47:07;5.85;;;2.70;;
57441;SDS011;43284;47.042;15.498;2023-07-20T04:49:33;7.22;;;2.65;;
57441;SDS011;43284;47.042;15.498;2023-07-20T04:51:59;5.07;;;2.92;;
57441;SDS011;43284;47.042;15.498;2023-07-20T04:54:25;3.60;;;2.13;;
57441;SDS011;43284;47.042;15.498;2023-07-20T04:56:52;5.45;;;2.72;;
57441;SDS011;43284;47.042;15.498;2023-07-20T04:59:18;5.90;;;2.95;;
57441;SDS011;43284;47.042;15.498;2023-07-20T05:01:44;5.22;;;2.78;;
57441;SDS011;43284;47.042;15.498;2023-07-20T05:04:10;5.68;;;2.30;;
57441;SDS011;43284;47.042;15.498;2023-07-20T05:06:36;4.05;;;2.40;;
57441;SDS011;43284;47.042;15.498;2023-07-20T05:09:01;5.25;;;2.50;;
57441;SDS011;43284;47.042;15.498;2023-07-20T05:11:27;4.40;;;2.42;;
57441;SDS011;43284;47.042;15.498;2023-07-20T05:13:52;7.38;;;2.53;;
57441;SDS011;43284;47.042;15.498;2023-07-20T05:16:18;4.97;;;2.58;;
57441;SDS011;43284;47.042;15.498;2023-07-20T05:18:43;5.07;;;2.85;;
57441;SDS011;43284;47.042;15.498;2023-07-20T05:21:09;6.43;;;2.95;;
57441;SDS011;43284;47.042;15.498;2023-07-20T05:23:35;6.72;;;3.10;;
57441;SDS011;43284;47.042;15.498;2023-07-20T05:26:00;4.43;;;2.58;;
57441;SDS011;43284;47.042;15.498;2023-07-20T05:28:26;8.90;;;3.15;;
57441;SDS011;43284;47.042;15.498;2023-07-20T05:30:52;4.82;;;2.67;;
57441;SDS011;43284;47.042;15.498;2023-07-20T05:33:18;4.97;;;2.55;;
57441;SDS011;43284;47.042;15.498;2023-07-20T05:35:45;6.50;;;3.40;;
57441;SDS011;43284;47.042;15.498;2023-07-20T05:38:10;10.18;;;3.72;;
57441;SDS011;43284;47.042;15.498;2023-07-20T05:40:40;6.30;;;3.17;;
57441;SDS011;43284;47.042;15.498;2023-07-20T05:43:09;6.80;;;3.05;;
57441;SDS011;43284;47.042;15.498;2023-07-20T05:45:34;3.92;;;2.65;;
57441;SDS011;43284;47.042;15.498;2023-07-20T05:48:00;3.85;;;2.50;;
57441;SDS011;43284;47.042;15.498;2023-07-20T05:50:25;11.25;;;3.25;;
57441;SDS011;43284;47.042;15.498;2023-07-20T05:52:54;7.18;;;2.83;;
57441;SDS011;43284;47.042;15.498;2023-07-20T05:55:20;7.43;;;3.28;;
57441;SDS011;43284;47.042;15.498;2023-07-20T05:57:46;8.52;;;3.33;;
57441;SDS011;43284;47.042;15.498;2023-07-20T06:00:13;8.77;;;3.20;;
57441;SDS011;43284;47.042;15.498;2023-07-20T06:02:39;7.13;;;3.15;;
57441;SDS011;43284;47.042;15.498;2023-07-20T06:05:05;9.07;;;3.83;;
57441;SDS011;43284;47.042;15.498;2023-07-20T06:07:35;5.88;;;3.67;;
57441;SDS011;43284;47.042;15.498;2023-07-20T06:10:03;6.57;;;3.70;;
57441;SDS011;43284;47.042;15.498;2023-07-20T06:12:30;10.68;;;3.65;;
57441;SDS011;43284;47.042;15.498;2023-07-20T06:14:56;11.35;;;3.95;;
57441;SDS011;43284;47.042;15.498;2023-07-20T06:17:22;6.82;;;3.38;;
57441;SDS011;43284;47.042;15.498;2023-07-20T06:19:47;6.70;;;3.63;;
57441;SDS011;43284;47.042;15.498;2023-07-20T06:22:12;7.22;;;3.58;;
57441;SDS011;43284;47.042;15.498;2023-07-20T06:24:38;7.57;;;3.72;;
57441;SDS011;43284;47.042;15.498;2023-07-20T06:27:04;6.97;;;3.60;;
57441;SDS011;43284;47.042;15.498;2023-07-20T06:29:30;6.22;;;3.33;;
57441;SDS011;43284;47.042;15.498;2023-07-20T06:31:56;8.85;;;3.78;;
57441;SDS011;43284;47.042;15.498;2023-07-20T06:34:21;7.93;;;3.50;;
57441;SDS011;43284;47.042;15.498;2023-07-20T06:36:49;8.48;;;3.38;;
57441;SDS011;43284;47.042;15.498;2023-07-20T06:39:15;8.45;;;3.67;;
57441;SDS011;43284;47.042;15.498;2023-07-20T06:41:40;9.20;;;3.72;;
57441;SDS011;43284;47.042;15.498;2023-07-20T06:44:06;7.45;;;4.10;;
57441;SDS011;43284;47.042;15.498;2023-07-20T06:46:33;5.57;;;3.17;;
57441;SDS011;43284;47.042;15.498;2023-07-20T06:48:58;9.02;;;3.50;;
57441;SDS011;43284;47.042;15.498;2023-07-20T06:51:24;10.30;;;4.13;;
57441;SDS011;43284;47.042;15.498;2023-07-20T06:53:49;6.68;;;3.53;;
57441;SDS011;43284;47.042;15.498;2023-07-20T06:56:15;10.18;;;3.95;;
57441;SDS011;43284;47.042;15.498;2023-07-20T06:58:40;6.35;;;3.50;;
57441;SDS011;43284;47.042;15.498;2023-07-20T07:01:07;7.50;;;3.50;;
57441;SDS011;43284;47.042;15.498;2023-07-20T07:03:33;8.43;;;3.78;;
57441;SDS011;43284;47.042;15.498;2023-07-20T07:05:59;6.40;;;4.28;;
57441;SDS011;43284;47.042;15.498;2023-07-20T07:08:25;7.85;;;3.65;;
57441;SDS011;43284;47.042;15.498;2023-07-20T07:10:51;6.47;;;3.78;;
57441;SDS011;43284;47.042;15.498;2023-07-20T07:13:17;8.93;;;3.35;;
57441;SDS011;43284;47.042;15.498;2023-07-20T07:15:43;6.68;;;4.15;;
57441;SDS011;43284;47.042;15.498;2023-07-20T07:18:09;6.60;;;3.72;;
57441;SDS011;43284;47.042;15.498;2023-07-20T07:20:34;14.73;;;3.65;;
57441;SDS011;43284;47.042;15.498;2023-07-20T07:23:00;8.38;;;3.58;;
57441;SDS011;43284;47.042;15.498;2023-07-20T07:25:26;7.63;;;3.33;;
57441;SDS011;43284;47.042;15.498;2023-07-20T07:27:52;8.55;;;3.55;;
57441;SDS011;43284;47.042;15.498;2023-07-20T07:30:18;7.35;;;3.13;;
57441;SDS011;43284;47.042;15.498;2023-07-20T07:32:44;8.95;;;3.60;;
57441;SDS011;43284;47.042;15.498;2023-07-20T07:35:09;9.40;;;3.25;;
57441;SDS011;43284;47.042;15.498;2023-07-20T07:37:35;6.47;;;3.20;;
57441;SDS011;43284;47.042;15.498;2023-07-20T07:40:01;10.00;;;3.80;;
57441;SDS011;43284;47.042;15.498;2023-07-20T07:42:28;7.80;;;3.30;;
57441;SDS011;43284;47.042;15.498;2023-07-20T07:44:54;9.00;;;3.50;;
57441;SDS011;43284;47.042;15.498;2023-07-20T07:47:19;8.48;;;3.08;;
57441;SDS011;43284;47.042;15.498;2023-07-20T07:49:45;6.97;;;3.10;;
57441;SDS011;43284;47.042;15.498;2023-07-20T07:52:11;8.15;;;3.55;;
57441;SDS011;43284;47.042;15.498;2023-07-20T07:54:36;5.43;;;3.15;;
57441;SDS011;43284;47.042;15.498;2023-07-20T07:57:02;8.27;;;3.28;;
57441;SDS011;43284;47.042;15.498;2023-07-20T07:59:27;9.73;;;3.33;;
57441;SDS011;43284;47.042;15.498;2023-07-20T08:01:53;9.02;;;3.35;;
57441;SDS011;43284;47.042;15.498;2023-07-20T08:04:18;7.85;;;3.45;;
57441;SDS011;43284;47.042;15.498;2023-07-20T08:06:44;4.72;;;2.72;;
57441;SDS011;43284;47.042;15.498;2023-07-20T08:09:10;4.88;;;2.55;;
57441;SDS011;43284;47.042;15.498;2023-07-20T08:11:35;6.53;;;3.20;;
57441;SDS011;43284;47.042;15.498;2023-07-20T08:14:00;4.57;;;2.95;;
57441;SDS011;43284;47.042;15.498;2023-07-20T08:16:26;5.95;;;3.00;;
57441;SDS011;43284;47.042;15.498;2023-07-20T08:18:52;5.88;;;3.17;;
57441;SDS011;43284;47.042;15.498;2023-07-20T08:21:18;6.03;;;3.33;;
57441;SDS011;43284;47.042;15.498;2023-07-20T08:23:43;7.07;;;3.20;;
57441;SDS011;43284;47.042;15.498;2023-07-20T08:26:09;4.68;;;2.80;;
57441;SDS011;43284;47.042;15.498;2023-07-20T08:28:34;5.50;;;3.15;;
57441;SDS011;43284;47.042;15.498;2023-07-20T08:31:00;6.53;;;2.83;;
57441;SDS011;43284;47.042;15.498;2023-07-20T08:33:25;8.50;;;3.53;;
57441;SDS011;43284;47.042;15.498;2023-07-20T08:35:54;7.47;;;3.85;;
57441;SDS011;43284;47.042;15.498;2023-07-20T08:38:20;7.70;;;3.30;;
57441;SDS011;43284;47.042;15.498;2023-07-20T08:40:46;8.65;;;3.63;;
57441;SDS011;43284;47.042;15.498;2023-07-20T08:43:12;6.35;;;3.30;;
57441;SDS011;43284;47.042;15.498;2023-07-20T08:45:39;5.97;;;3.20;;
57441;SDS011;43284;47.042;15.498;2023-07-20T08:48:05;4.60;;;2.72;;
57441;SDS011;43284;47.042;15.498;2023-07-20T08:50:33;5.68;;;3.42;;
57441;SDS011;43284;47.042;15.498;2023-07-20T08:53:00;8.38;;;3.50;;
57441;SDS011;43284;47.042;15.498;2023-07-20T08:55:26;5.00;;;2.72;;
57441;SDS011;43284;47.042;15.498;2023-07-20T08:57:55;7.18;;;3.05;;
57441;SDS011;43284;47.042;15.498;2023-07-20T09:00:23;4.55;;;3.05;;
57441;SDS011;43284;47.042;15.498;2023-07-20T09:02:50;5.18;;;2.85;;
57441;SDS011;43284;47.042;15.498;2023-07-20T09:05:22;5.43;;;3.20;;
57441;SDS011;43284;47.042;15.498;2023-07-20T09:07:50;7.63;;;3.25;;
57441;SDS011;43284;47.042;15.498;2023-07-20T09:10:18;7.22;;;3.45;;
57441;SDS011;43284;47.042;15.498;2023-07-20T09:12:46;6.85;;;2.90;;
57441;SDS011;43284;47.042;15.498;2023-07-20T09:15:11;6.40;;;3.13;;
57441;SDS011;43284;47.042;15.498;2023-07-20T09:17:37;4.88;;;3.08;;
57441;SDS011;43284;47.042;15.498;2023-07-20T09:20:04;6.00;;;3.20;;
57441;SDS011;43284;47.042;15.498;2023-07-20T09:22:39;6.00;;;3.00;;
57441;SDS011;43284;47.042;15.498;2023-07-20T09:25:11;4.85;;;2.72;;
57441;SDS011;43284;47.042;15.498;2023-07-20T09:27:42;4.40;;;2.78;;
57441;SDS011;43284;47.042;15.498;2023-07-20T09:30:13;3.97;;;2.67;;
57441;SDS011;43284;47.042;15.498;2023-07-20T09:32:40;5.75;;;3.40;;
57441;SDS011;43284;47.042;15.498;2023-07-20T09:35:15;5.13;;;2.80;;
57441;SDS011;43284;47.042;15.498;2023-07-20T09:37:53;4.40;;;2.28;;
57441;SDS011;43284;47.042;15.498;2023-07-20T09:40:22;6.22;;;3.10;;
57441;SDS011;43284;47.042;15.498;2023-07-20T09:42:49;5.40;;;3.40;;
57441;SDS011;43284;47.042;15.498;2023-07-20T09:45:17;4.80;;;2.75;;
57441;SDS011;43284;47.042;15.498;2023-07-20T09:47:43;5.97;;;2.47;;
57441;SDS011;43284;47.042;15.498;2023-07-20T09:50:09;5.50;;;2.92;;
57441;SDS011;43284;47.042;15.498;2023-07-20T09:52:39;6.00;;;2.97;;
57441;SDS011;43284;47.042;15.498;2023-07-20T09:55:08;5.82;;;2.90;;
57441;SDS011;43284;47.042;15.498;2023-07-20T09:57:34;5.88;;;3.05;;
57441;SDS011;43284;47.042;15.498;2023-07-20T10:00:01;6.30;;;3.42;;
57441;SDS011;43284;47.042;15.498;2023-07-20T10:02:33;5.65;;;2.88;;
57441;SDS011;43284;47.042;15.498;2023-07-20T10:05:06;5.60;;;3.10;;
57441;SDS011;43284;47.042;15.498;2023-07-20T10:07:35;6.72;;;3.40;;
57441;SDS011;43284;47.042;15.498;2023-07-20T10:10:05;9.20;;;3.08;;
57441;SDS011;43284;47.042;15.498;2023-07-20T10:12:32;5.45;;;3.28;;
57441;SDS011;43284;47.042;15.498;2023-07-20T10:15:12;5.75;;;2.85;;
57441;SDS011;43284;47.042;15.498;2023-07-20T10:17:46;8.05;;;3.03;;
57441;SDS011;43284;47.042;15.498;2023-07-20T10:20:36;5.03;;;2.70;;
57441;SDS011;43284;47.042;15.498;2023-07-20T10:23:04;7.00;;;3.40;;
57441;SDS011;43284;47.042;15.498;2023-07-20T10:25:31;7.10;;;3.17;;
57441;SDS011;43284;47.042;15.498;2023-07-20T10:27:57;6.55;;;3.45;;
57441;SDS011;43284;47.042;15.498;2023-07-20T10:30:24;9.32;;;3.40;;
57441;SDS011;43284;47.042;15.498;2023-07-20T10:32:51;9.15;;;3.28;;
57441;SDS011;43284;47.042;15.498;2023-07-20T10:35:18;9.48;;;3.42;;
57441;SDS011;43284;47.042;15.498;2023-07-20T10:37:47;5.70;;;3.10;;
57441;SDS011;43284;47.042;15.498;2023-07-20T10:40:28;6.63;;;3.25;;
57441;SDS011;43284;47.042;15.498;2023-07-20T10:43:03;7.38;;;3.38;;
57441;SDS011;43284;47.042;15.498;2023-07-20T10:48:13;6.45;;;3.03;;
57441;SDS011;43284;47.042;15.498;2023-07-20T10:50:42;5.80;;;3.17;;
57441;SDS011;43284;47.042;15.498;2023-07-20T10:55:38;4.43;;;2.42;;
57441;SDS011;43284;47.042;15.498;2023-07-20T10:58:08;3.90;;;2.38;;
57441;SDS011;43284;47.042;15.498;2023-07-20T11:00:35;6.28;;;2.40;;
57441;SDS011;43284;47.042;15.498;2023-07-20T11:03:01;7.47;;;3.17;;
57441;SDS011;43284;47.042;15.498;2023-07-20T11:05:33;7.78;;;2.78;;
57441;SDS011;43284;47.042;15.498;2023-07-20T11:08:03;5.38;;;2.85;;
57441;SDS011;43284;47.042;15.498;2023-07-20T11:10:29;6.10;;;3.05;;
57441;SDS011;43284;47.042;15.498;2023-07-20T11:15:46;3.90;;;2.40;;
57441;SDS011;43284;47.042;15.498;2023-07-20T11:18:12;4.57;;;2.65;;
57441;SDS011;43284;47.042;15.498;2023-07-20T11:20:39;4.22;;;2.22;;
57441;SDS011;43284;47.042;15.498;2023-07-20T11:23:06;4.13;;;2.38;;
57441;SDS011;43284;47.042;15.498;2023-07-20T11:25:41;6.45;;;2.22;;
57441;SDS011;43284;47.042;15.498;2023-07-20T11:28:07;5.93;;;2.65;;
57441;SDS011;43284;47.042;15.498;2023-07-20T11:30:35;3.50;;;2.38;;
57441;SDS011;43284;47.042;15.498;2023-07-20T11:33:00;7.82;;;2.60;;
57441;SDS011;43284;47.042;15.498;2023-07-20T11:35:26;4.20;;;1.83;;
57441;SDS011;43284;47.042;15.498;2023-07-20T11:37:51;3.97;;;2.40;;
57441;SDS011;43284;47.042;15.498;2023-07-20T11:40:17;6.90;;;2.05;;
57441;SDS011;43284;47.042;15.498;2023-07-20T11:42:42;4.00;;;2.10;;
57441;SDS011;43284;47.042;15.498;2023-07-20T11:45:08;6.63;;;2.03;;
57441;SDS011;43284;47.042;15.498;2023-07-20T11:47:34;3.80;;;2.22;;
57441;SDS011;43284;47.042;15.498;2023-07-20T11:50:05;3.97;;;2.22;;
57441;SDS011;43284;47.042;15.498;2023-07-20T11:52:31;5.90;;;2.75;;
57441;SDS011;43284;47.042;15.498;2023-07-20T11:54:58;3.78;;;2.50;;
57441;SDS011;43284;47.042;15.498;2023-07-20T11:57:23;4.20;;;2.65;;
57441;SDS011;43284;47.042;15.498;2023-07-20T11:59:53;6.57;;;2.80;;
57441;SDS011;43284;47.042;15.498;2023-07-20T12:02:22;4.38;;;2.40;;
57441;SDS011;43284;47.042;15.498;2023-07-20T12:04:51;4.68;;;2.60;;
57441;SDS011;43284;47.042;15.498;2023-07-20T12:07:18;8.00;;;2.50;;
57441;SDS011;43284;47.042;15.498;2023-07-20T12:09:44;5.07;;;2.70;;
57441;SDS011;43284;47.042;15.498;2023-07-20T12:12:10;4.95;;;3.05;;
57441;SDS011;43284;47.042;15.498;2023-07-20T12:14:39;3.35;;;2.58;;
57441;SDS011;43284;47.042;15.498;2023-07-20T12:17:04;4.43;;;2.67;;
57441;SDS011;43284;47.042;15.498;2023-07-20T12:19:37;4.78;;;2.50;;
57441;SDS011;43284;47.042;15.498;2023-07-20T12:22:04;4.65;;;2.42;;
57441;SDS011;43284;47.042;15.498;2023-07-20T12:24:31;4.40;;;2.30;;
57441;SDS011;43284;47.042;15.498;2023-07-20T12:26:56;5.18;;;2.60;;
57441;SDS011;43284;47.042;15.498;2023-07-20T12:29:23;4.63;;;2.53;;
57441;SDS011;43284;47.042;15.498;2023-07-20T12:31:49;6.97;;;2.40;;
57441;SDS011;43284;47.042;15.498;2023-07-20T12:34:14;4.93;;;2.33;;
57441;SDS011;43284;47.042;15.498;2023-07-20T12:36:40;3.55;;;1.92;;
57441;SDS011;43284;47.042;15.498;2023-07-20T12:39:05;5.70;;;2.10;;
57441;SDS011;43284;47.042;15.498;2023-07-20T12:41:31;4.55;;;2.10;;
57441;SDS011;43284;47.042;15.498;2023-07-20T12:43:56;3.63;;;2.53;;
57441;SDS011;43284;47.042;15.498;2023-07-20T12:46:23;2.85;;;1.90;;
57441;SDS011;43284;47.042;15.498;2023-07-20T12:48:49;2.63;;;1.58;;
57441;SDS011;43284;47.042;15.498;2023-07-20T12:51:14;3.15;;;1.60;;
57441;SDS011;43284;47.042;15.498;2023-07-20T12:53:40;4.30;;;1.50;;
57441;SDS011;43284;47.042;15.498;2023-07-20T12:56:06;2.88;;;1.67;;
57441;SDS011;43284;47.042;15.498;2023-07-20T12:58:31;2.95;;;1.63;;
57441;SDS011;43284;47.042;15.498;2023-07-20T13:00:57;2.20;;;1.52;;
57441;SDS011;43284;47.042;15.498;2023-07-20T13:03:22;3.17;;;1.38;;
57441;SDS011;43284;47.042;15.498;2023-07-20T13:05:48;2.60;;;1.55;;
57441;SDS011;43284;47.042;15.498;2023-07-20T13:08:14;1.98;;;1.33;;
57441;SDS011;43284;47.042;15.498;2023-07-20T13:10:40;4.05;;;1.60;;
57441;SDS011;43284;47.042;15.498;2023-07-20T13:13:05;2.83;;;1.50;;
57441;SDS011;43284;47.042;15.498;2023-07-20T13:15:32;2.15;;;1.60;;
57441;SDS011;43284;47.042;15.498;2023-07-20T13:18:05;3.45;;;1.50;;
57441;SDS011;43284;47.042;15.498;2023-07-20T13:20:31;4.57;;;1.77;;
57441;SDS011;43284;47.042;15.498;2023-07-20T13:22:57;2.60;;;1.58;;
57441;SDS011;43284;47.042;15.498;2023-07-20T13:25:23;3.22;;;1.63;;
57441;SDS011;43284;47.042;15.498;2023-07-20T13:27:50;3.83;;;1.75;;
57441;SDS011;43284;47.042;15.498;2023-07-20T13:30:16;2.45;;;1.55;;
57441;SDS011;43284;47.042;15.498;2023-07-20T13:32:42;1.92;;;1.20;;
57441;SDS011;43284;47.042;15.498;2023-07-20T13:35:09;3.70;;;1.65;;
57441;SDS011;43284;47.042;15.498;2023-07-20T13:37:36;9.60;;;1.75;;
57441;SDS011;43284;47.042;15.498;2023-07-20T13:40:02;2.95;;;1.67;;
57441;SDS011;43284;47.042;15.498;2023-07-20T13:42:30;3.25;;;1.88;;
57441;SDS011;43284;47.042;15.498;2023-07-20T13:44:57;4.57;;;2.20;;
57441;SDS011;43284;47.042;15.498;2023-07-20T13:47:24;2.80;;;1.92;;
57441;SDS011;43284;47.042;15.498;2023-07-20T13:49:50;3.78;;;2.33;;
57441;SDS011;43284;47.042;15.498;2023-07-20T13:52:15;3.83;;;2.00;;
57441;SDS011;43284;47.042;15.498;2023-07-20T13:54:41;3.63;;;1.90;;
57441;SDS011;43284;47.042;15.498;2023-07-20T13:57:06;5.93;;;2.40;;
57441;SDS011;43284;47.042;15.498;2023-07-20T13:59:32;6.35;;;2.22;;
57441;SDS011;43284;47.042;15.498;2023-07-20T14:01:57;6.50;;;1.85;;
57441;SDS011;43284;47.042;15.498;2023-07-20T14:04:23;6.13;;;2.70;;
57441;SDS011;43284;47.042;15.498;2023-07-20T14:06:49;4.65;;;2.10;;
57441;SDS011;43284;47.042;15.498;2023-07-20T14:09:15;3.70;;;2.30;;
57441;SDS011;43284;47.042;15.498;2023-07-20T14:11:41;3.33;;;1.83;;
57441;SDS011;43284;47.042;15.498;2023-07-20T14:14:08;5.43;;;2.28;;
57441;SDS011;43284;47.042;15.498;2023-07-20T14:16:33;5.05;;;1.92;;
57441;SDS011;43284;47.042;15.498;2023-07-20T14:18:59;3.67;;;2.17;;
57441;SDS011;43284;47.042;15.498;2023-07-20T14:21:25;6.20;;;2.20;;
57441;SDS011;43284;47.042;15.498;2023-07-20T14:23:51;5.20;;;2.10;;
57441;SDS011;43284;47.042;15.498;2023-07-20T14:26:18;3.10;;;2.22;;
57441;SDS011;43284;47.042;15.498;2023-07-20T14:28:44;7.22;;;2.08;;
57441;SDS011;43284;47.042;15.498;2023-07-20T14:31:10;2.92;;;1.98;;
57441;SDS011;43284;47.042;15.498;2023-07-20T14:33:36;4.72;;;2.00;;
57441;SDS011;43284;47.042;15.498;2023-07-20T14:36:02;2.78;;;1.90;;
57441;SDS011;43284;47.042;15.498;2023-07-20T14:38:30;4.85;;;2.28;;
57441;SDS011;43284;47.042;15.498;2023-07-20T14:40:57;3.28;;;2.40;;
57441;SDS011;43284;47.042;15.498;2023-07-20T14:43:23;3.30;;;2.15;;
57441;SDS011;43284;47.042;15.498;2023-07-20T14:45:49;3.15;;;2.10;;
57441;SDS011;43284;47.042;15.498;2023-07-20T14:48:15;3.92;;;2.33;;